Etusivu
METAR-TAF:

METAR-TAF

Lentoasemat :

Labuan, Malesia

Leveyspiiri: 05-18N, Pituuspiiri: 115-15E, korkeus merenpinnasta: 30 m

Tämänhetkinen sää

Tämä raportti tehtiin 18 minuuttia sitten, kello 07.00 UTC
Tuuli 10 kn pohjoisesta, vaihdellen lännen/luoteen ja idän/koillisen välillä
Lämpötila 29°C
Kosteus 79%
Ilmanpaine 1007 hPa
Näkyvyys 10 km tai enemmän
Muutamia pilviä 1300 ft:n korkeudessa
Hajonneita pilviä 29000 ft:n korkeudessa

METAR: WBKL 200700Z 01010KT 300V060 9999 FEW013 BKN290 29/25 Q1007

Aika: 15:18 (07:18 UTC)

Sääennuste

Tämä raportti tehtiin 2 tuntia ja 18 minuuttia sitten, kello 05.00 UTC
Ennuste voimassa 20. päivästä klo 06 UTC - 21. päivään klo 06 UTC
Tuuli 12 kn pohjoisesta
Näkyvyys 10 km tai enemmän
Muutamia pilviä 1500 ft:n korkeudessa

TAF: WBKL 200500Z 2006/2106 01012KT 9999 FEW015

Säähavainnot ja -ennusteet yli 4000 lentoasemalta (METAR- ja TAF-raportit).

Käytössä olevat sääasemat on merkitty karttaan keltaisilla ja punaisilla pisteillä.

Aseta hiiri pisteen päälle nähdäksesi sääaseman nimen.

Klikkaa sitten nähdäksesi säähavainnot ja -ennusteet.

Kartan vaihtaminen: klikkaa mustalla rastilla varustettuja vihreitä pisteitä, niin voit zoomata sisään; viivalla varustettua vihreää pistettä, niin voit zoomata ulos tai vihreitä nuolia, niin pääset viereisille kartoille.


METAR-TAF: